createdAt,value
2018-07-26T00:04:55.902Z,21.30
2018-07-26T00:09:59.078Z,21.20
2018-07-26T00:15:02.247Z,21.20
2018-07-26T00:20:05.955Z,21.30
2018-07-26T00:25:09.220Z,21.40
2018-07-26T00:30:12.378Z,21.50
2018-07-26T00:35:15.551Z,21.40
2018-07-26T00:40:18.722Z,21.30
2018-07-26T00:45:21.899Z,21.30
2018-07-26T00:50:25.087Z,21.30
2018-07-26T00:55:28.286Z,21.20
2018-07-26T01:00:31.450Z,21.10
2018-07-26T01:05:34.630Z,20.80
2018-07-26T01:10:37.802Z,20.70
2018-07-26T01:15:40.990Z,20.50
2018-07-26T01:20:44.154Z,20.30
2018-07-26T01:25:47.314Z,20.30
2018-07-26T01:30:50.491Z,20.20
2018-07-26T01:35:53.706Z,20.10
2018-07-26T01:40:57.022Z,20.10
2018-07-26T01:46:00.198Z,20.10
2018-07-26T01:51:03.378Z,20.00
2018-07-26T01:56:07.447Z,19.90
2018-07-26T02:01:11.606Z,19.90
2018-07-26T02:06:14.794Z,19.80
2018-07-26T02:11:17.983Z,19.70
2018-07-26T02:16:21.154Z,19.80
2018-07-26T02:21:24.358Z,19.80
2018-07-26T02:26:27.542Z,19.70
2018-07-26T02:31:30.737Z,19.50
2018-07-26T02:36:33.906Z,19.60
2018-07-26T02:41:37.391Z,19.60
2018-07-26T02:46:40.595Z,19.60
2018-07-26T02:51:43.766Z,19.70
2018-07-26T02:56:46.939Z,19.70
2018-07-26T03:01:50.119Z,19.80
2018-07-26T03:06:53.345Z,19.60
2018-07-26T03:11:56.533Z,19.30
2018-07-26T03:16:59.727Z,19.30
2018-07-26T03:22:02.907Z,19.40
2018-07-26T03:27:06.123Z,19.50
2018-07-26T03:32:09.746Z,19.40
2018-07-26T03:37:12.934Z,19.20
2018-07-26T03:42:16.244Z,19.10
2018-07-26T03:47:19.418Z,19.20
2018-07-26T03:52:22.610Z,19.20
2018-07-26T03:57:25.796Z,19.00
2018-07-26T04:02:28.986Z,19.20
2018-07-26T04:07:32.178Z,19.40
2018-07-26T04:12:35.361Z,19.40
2018-07-26T04:17:38.542Z,19.60
2018-07-26T04:22:41.727Z,19.70
2018-07-26T13:34:30.462Z,35.20
2018-07-26T13:39:33.673Z,35.80
2018-07-26T13:44:36.914Z,36.00
2018-07-26T13:49:40.192Z,35.50
2018-07-26T13:54:43.538Z,35.40
2018-07-26T13:59:46.719Z,35.20
2018-07-26T14:04:50.018Z,35.20
2018-07-26T14:09:53.303Z,35.10
2018-07-26T14:14:56.792Z,35.20
2018-07-26T14:20:00.075Z,35.30
2018-07-26T14:25:03.281Z,35.20
2018-07-26T14:30:07.750Z,35.10
2018-07-26T14:35:10.989Z,35.00
2018-07-26T14:40:14.198Z,35.10
2018-07-26T14:45:17.511Z,35.20
2018-07-26T14:50:20.735Z,35.10
2018-07-26T14:55:23.923Z,35.00
2018-07-26T15:00:27.107Z,35.20
2018-07-26T15:05:30.287Z,35.20
2018-07-26T15:10:33.466Z,35.20
2018-07-26T15:15:36.648Z,35.20
2018-07-26T15:20:39.888Z,35.10
2018-07-26T15:25:42.990Z,35.00
2018-07-26T15:30:46.194Z,34.90
2018-07-26T15:35:49.367Z,35.00
2018-07-26T15:40:52.730Z,35.00
2018-07-26T15:45:55.951Z,35.10
2018-07-26T15:50:59.656Z,35.00
2018-07-26T15:56:02.845Z,35.10
2018-07-26T16:01:06.052Z,34.90
2018-07-26T16:06:09.247Z,34.90
2018-07-26T16:11:12.454Z,34.70
2018-07-26T16:16:15.770Z,34.80
2018-07-26T16:21:18.975Z,34.70
2018-07-26T16:26:22.168Z,34.60
2018-07-26T16:31:25.425Z,34.60
2018-07-26T16:36:28.847Z,34.70
2018-07-26T16:41:32.180Z,34.50
2018-07-26T16:46:35.923Z,34.40
2018-07-26T16:51:39.131Z,34.40
2018-07-26T16:56:42.314Z,34.40
2018-07-26T17:01:45.535Z,34.40
2018-07-26T17:06:48.726Z,34.30
2018-07-26T17:11:51.935Z,34.30
2018-07-26T17:21:58.031Z,34.20
2018-07-26T17:27:01.248Z,34.10
2018-07-26T17:32:04.965Z,34.00
2018-07-26T17:37:08.175Z,33.80
2018-07-26T17:42:11.391Z,33.60
2018-07-26T17:47:14.634Z,33.40
2018-07-26T17:52:17.815Z,33.40
2018-07-26T17:57:21.526Z,33.20
2018-07-26T18:02:24.726Z,33.10
2018-07-26T18:07:27.910Z,33.00
2018-07-26T18:12:31.094Z,32.80
2018-07-26T18:17:34.293Z,32.70
2018-07-26T18:22:37.474Z,32.60
2018-07-26T18:27:40.666Z,32.50
2018-07-26T18:37:46.786Z,32.30
2018-07-26T18:42:49.974Z,32.20
2018-07-26T18:47:53.163Z,32.10
2018-07-26T18:52:56.410Z,32.00
2018-07-26T18:57:59.518Z,31.80
2018-07-26T19:03:02.712Z,31.70
2018-07-26T19:08:06.585Z,31.50
2018-07-26T19:13:09.777Z,31.40
2018-07-26T19:18:12.968Z,31.20
2018-07-26T19:23:16.146Z,31.10
2018-07-26T19:28:19.337Z,30.90
2018-07-26T19:33:22.530Z,30.80
2018-07-26T19:38:25.937Z,30.60
2018-07-26T19:43:29.106Z,30.40
2018-07-26T19:48:32.304Z,30.40
2018-07-26T19:53:35.492Z,30.10
2018-07-26T20:03:41.921Z,29.90
2018-07-26T20:08:45.123Z,29.70
2018-07-26T20:13:48.403Z,29.60
2018-07-26T20:18:51.722Z,29.50
2018-07-26T20:23:54.902Z,29.40
2018-07-26T20:34:01.218Z,29.20
2018-07-26T20:39:07.830Z,29.10
2018-07-26T20:44:11.720Z,28.90
2018-07-26T20:49:14.897Z,28.70
2018-07-26T20:54:18.089Z,28.60
2018-07-26T20:59:21.382Z,28.50
2018-07-26T21:04:24.574Z,28.40
2018-07-26T21:09:27.757Z,28.30
2018-07-26T21:14:30.982Z,28.30
2018-07-26T21:19:34.208Z,28.10
2018-07-26T21:24:37.396Z,27.90
2018-07-26T21:29:40.562Z,28.00
2018-07-26T21:34:43.767Z,27.90
2018-07-26T21:39:46.962Z,28.00
2018-07-26T21:44:50.158Z,27.90
2018-07-26T21:49:53.335Z,27.90
2018-07-26T21:54:56.526Z,27.90
2018-07-26T21:59:59.714Z,27.80
2018-07-26T22:05:02.950Z,27.80
2018-07-26T22:10:06.343Z,27.80
2018-07-26T22:15:09.554Z,27.70
2018-07-26T22:20:12.719Z,27.60
2018-07-26T22:25:15.931Z,27.70
2018-07-26T22:30:19.267Z,27.60
2018-07-26T22:35:22.583Z,27.60
2018-07-26T22:40:25.767Z,27.50
2018-07-26T22:50:32.076Z,27.10
2018-07-26T22:55:35.250Z,26.90
2018-07-26T23:00:38.524Z,26.70
2018-07-26T23:05:41.702Z,26.70
2018-07-26T23:10:44.878Z,26.50
2018-07-26T23:20:51.046Z,26.30
2018-07-26T23:25:54.249Z,26.30
2018-07-26T23:30:57.562Z,26.30
2018-07-26T23:36:00.746Z,26.10
2018-07-26T23:46:06.864Z,26.10
2018-07-26T23:51:10.048Z,26.10
2018-07-26T23:56:13.246Z,26.00
